Hovedside
METAR-TAF:

METAR-TAF

Lufthavner :

Cabinda, Angola

breddegrad: 5-35-50S, lengdegrad: 12-11-17E, høyde over havet: 20 m

Gjeldene værobservasjon

Denne rapporten ble laget for 3 timer og 5 minutter siden, klokken 18:00 UTC
Vind 5 kt fra Sør-sørvest
Temperatur 25°C
Luftfuktighet 83%
Trykk 1011 hPa
Sikt: 9000 m
Få skyer i en høyde av 1200 ft

METAR: FNCA 211800Z 21005KT 9000 FEW012 25/22 Q1011

Tid: 22:05 (21:05 UTC)

Varsel

Denne rapporten ble laget for 10 timer og 10 minutter siden, klokken 10:55 UTC
Varsel gyldig fra 21. klokken 12 UTC til 21. klokken 24 UTC
Vind 10 kt fra Sør
Sikt: 8000 m
Spredte skyer i en høyde av 1200 ft
Overskyet i en høyde av 2000 ft
Blir
fra 21. klokken 14 UTC til 21. klokken 16 UTC
Sikt 10 km eller mer
Få skyer i en høyde av 2000 ft
Blir
fra 21. klokken 20 UTC til 21. klokken 22 UTC
Sikt: 7000 m

TAF: FNCA 211055Z 2112/2124 18010KT 8000 SCT012 OVC020 BECMG 2114/2116 9999 FEW020 BECMG 2120/2122 7000

Værobservasjoner og værvarsel for over 4000 flyplasser (METAR- og TAF-rapporter).

Tilgjengelige stasjoner er representert av de røde og gule prikkene på kartet.

Hold musepekeren over prikken for å se navnet på stasjonen.

Klikk så for å se værobservasjoner og -varsler.

For å forandre kartet kan du klikke på den grønne knappen med svart kryss for å zoome inn, på den grønne knappen med strek for å zoome ut, eller på de grønne pilene for å se tilstøtende kart.


METAR-TAF: